sensor_id;sensor_type;location;lat;lon;timestamp;temperature;humidity
2603;DHT22;1311;47.966;7.958;2023-04-06T00:00:10;0.20;99.90
2603;DHT22;1311;47.966;7.958;2023-04-06T00:02:37;0.20;99.90
2603;DHT22;1311;47.966;7.958;2023-04-06T00:05:05;0.20;99.90
2603;DHT22;1311;47.966;7.958;2023-04-06T00:07:33;0.20;99.90
2603;DHT22;1311;47.966;7.958;2023-04-06T00:10:00;0.20;99.90
2603;DHT22;1311;47.966;7.958;2023-04-06T00:12:27;0.10;99.90
2603;DHT22;1311;47.966;7.958;2023-04-06T00:14:54;0.10;99.90
2603;DHT22;1311;47.966;7.958;2023-04-06T00:17:20;0.00;99.90
2603;DHT22;1311;47.966;7.958;2023-04-06T00:19:47;0.00;99.90
2603;DHT22;1311;47.966;7.958;2023-04-06T00:22:14;0.00;99.90
2603;DHT22;1311;47.966;7.958;2023-04-06T00:24:42;0.00;99.90
2603;DHT22;1311;47.966;7.958;2023-04-06T00:27:09;0.00;99.90
2603;DHT22;1311;47.966;7.958;2023-04-06T00:29:35;0.00;99.90
2603;DHT22;1311;47.966;7.958;2023-04-06T00:32:02;0.00;99.90
2603;DHT22;1311;47.966;7.958;2023-04-06T00:34:29;0.00;99.90
2603;DHT22;1311;47.966;7.958;2023-04-06T00:36:56;0.00;99.90
2603;DHT22;1311;47.966;7.958;2023-04-06T00:39:22;0.00;99.90
2603;DHT22;1311;47.966;7.958;2023-04-06T00:41:51;-0.10;99.90
2603;DHT22;1311;47.966;7.958;2023-04-06T00:44:18;-0.10;99.90
2603;DHT22;1311;47.966;7.958;2023-04-06T00:46:46;-0.10;99.90
2603;DHT22;1311;47.966;7.958;2023-04-06T00:49:12;-0.10;99.90
2603;DHT22;1311;47.966;7.958;2023-04-06T00:51:39;-0.10;99.90
2603;DHT22;1311;47.966;7.958;2023-04-06T00:54:06;-0.20;99.90
2603;DHT22;1311;47.966;7.958;2023-04-06T00:56:32;-0.20;99.90
2603;DHT22;1311;47.966;7.958;2023-04-06T00:59:01;-0.20;99.90
2603;DHT22;1311;47.966;7.958;2023-04-06T01:01:28;-0.20;99.90
2603;DHT22;1311;47.966;7.958;2023-04-06T01:03:58;-0.20;99.90
2603;DHT22;1311;47.966;7.958;2023-04-06T01:06:24;-0.20;99.90
2603;DHT22;1311;47.966;7.958;2023-04-06T01:08:51;-0.20;99.90
2603;DHT22;1311;47.966;7.958;2023-04-06T01:11:18;-0.20;99.90
2603;DHT22;1311;47.966;7.958;2023-04-06T01:13:45;-0.30;99.90
2603;DHT22;1311;47.966;7.958;2023-04-06T01:16:14;-0.30;99.90
2603;DHT22;1311;47.966;7.958;2023-04-06T01:18:40;-0.20;99.90
2603;DHT22;1311;47.966;7.958;2023-04-06T01:21:08;-0.20;99.90
2603;DHT22;1311;47.966;7.958;2023-04-06T01:23:42;-0.30;99.90
2603;DHT22;1311;47.966;7.958;2023-04-06T01:26:09;-0.30;99.90
2603;DHT22;1311;47.966;7.958;2023-04-06T01:28:36;-0.30;99.90
2603;DHT22;1311;47.966;7.958;2023-04-06T01:31:04;-0.20;99.90
2603;DHT22;1311;47.966;7.958;2023-04-06T01:33:31;-0.30;99.90
2603;DHT22;1311;47.966;7.958;2023-04-06T01:35:58;-0.40;99.90
2603;DHT22;1311;47.966;7.958;2023-04-06T01:38:25;-0.40;99.90
2603;DHT22;1311;47.966;7.958;2023-04-06T01:40:53;-0.40;99.90
2603;DHT22;1311;47.966;7.958;2023-04-06T01:43:20;-0.40;99.90
2603;DHT22;1311;47.966;7.958;2023-04-06T01:45:47;-0.50;99.90
2603;DHT22;1311;47.966;7.958;2023-04-06T01:48:13;-0.50;99.90
2603;DHT22;1311;47.966;7.958;2023-04-06T01:50:40;-0.50;99.90
2603;DHT22;1311;47.966;7.958;2023-04-06T01:53:07;-0.50;99.90
2603;DHT22;1311;47.966;7.958;2023-04-06T01:55:34;-0.50;99.90
2603;DHT22;1311;47.966;7.958;2023-04-06T01:58:02;-0.50;99.90
2603;DHT22;1311;47.966;7.958;2023-04-06T02:00:28;-0.60;99.90
2603;DHT22;1311;47.966;7.958;2023-04-06T02:02:55;-0.60;99.90
2603;DHT22;1311;47.966;7.958;2023-04-06T02:05:22;-0.70;99.90
2603;DHT22;1311;47.966;7.958;2023-04-06T02:07:49;-0.70;99.90
2603;DHT22;1311;47.966;7.958;2023-04-06T02:10:17;-0.70;99.90
2603;DHT22;1311;47.966;7.958;2023-04-06T02:12:43;-0.70;99.90
2603;DHT22;1311;47.966;7.958;2023-04-06T02:15:12;-0.80;99.90
2603;DHT22;1311;47.966;7.958;2023-04-06T02:17:39;-0.80;99.90
2603;DHT22;1311;47.966;7.958;2023-04-06T02:20:06;-0.80;99.90
2603;DHT22;1311;47.966;7.958;2023-04-06T02:22:34;-0.90;99.90
2603;DHT22;1311;47.966;7.958;2023-04-06T02:25:02;-0.80;99.90
2603;DHT22;1311;47.966;7.958;2023-04-06T02:27:29;-0.80;99.90
2603;DHT22;1311;47.966;7.958;2023-04-06T02:29:56;-0.80;99.90
2603;DHT22;1311;47.966;7.958;2023-04-06T02:32:24;-0.80;99.90
2603;DHT22;1311;47.966;7.958;2023-04-06T02:34:51;-0.90;99.90
2603;DHT22;1311;47.966;7.958;2023-04-06T02:37:18;-0.90;99.90
2603;DHT22;1311;47.966;7.958;2023-04-06T02:39:45;-0.90;99.90
2603;DHT22;1311;47.966;7.958;2023-04-06T02:42:12;-1.00;99.90
2603;DHT22;1311;47.966;7.958;2023-04-06T02:44:40;-1.00;99.90
2603;DHT22;1311;47.966;7.958;2023-04-06T02:47:07;-0.90;99.90
2603;DHT22;1311;47.966;7.958;2023-04-06T02:49:35;-1.00;99.90
2603;DHT22;1311;47.966;7.958;2023-04-06T02:52:02;-1.00;99.90
2603;DHT22;1311;47.966;7.958;2023-04-06T02:54:29;-1.00;99.90
2603;DHT22;1311;47.966;7.958;2023-04-06T02:56:55;-1.00;99.90
2603;DHT22;1311;47.966;7.958;2023-04-06T02:59:22;-1.00;99.90
2603;DHT22;1311;47.966;7.958;2023-04-06T03:01:49;-1.00;99.90
2603;DHT22;1311;47.966;7.958;2023-04-06T03:04:16;-1.00;99.90
2603;DHT22;1311;47.966;7.958;2023-04-06T03:06:44;-1.00;99.90
2603;DHT22;1311;47.966;7.958;2023-04-06T03:09:10;-1.10;99.90
2603;DHT22;1311;47.966;7.958;2023-04-06T03:11:37;-1.00;99.90
2603;DHT22;1311;47.966;7.958;2023-04-06T03:14:04;-1.10;99.90
2603;DHT22;1311;47.966;7.958;2023-04-06T03:16:31;-1.10;99.90
2603;DHT22;1311;47.966;7.958;2023-04-06T03:18:57;-1.20;99.90
2603;DHT22;1311;47.966;7.958;2023-04-06T03:21:24;-1.20;99.90
2603;DHT22;1311;47.966;7.958;2023-04-06T03:23:52;-1.20;99.90
2603;DHT22;1311;47.966;7.958;2023-04-06T03:26:19;-1.20;99.90
2603;DHT22;1311;47.966;7.958;2023-04-06T03:28:45;-1.20;99.90
2603;DHT22;1311;47.966;7.958;2023-04-06T03:31:12;-1.30;99.90
2603;DHT22;1311;47.966;7.958;2023-04-06T03:33:39;-1.30;99.90
2603;DHT22;1311;47.966;7.958;2023-04-06T03:36:06;-1.30;99.90
2603;DHT22;1311;47.966;7.958;2023-04-06T03:38:33;-1.30;99.90
2603;DHT22;1311;47.966;7.958;2023-04-06T03:41:01;-1.30;99.90
2603;DHT22;1311;47.966;7.958;2023-04-06T03:43:28;-1.30;99.90
2603;DHT22;1311;47.966;7.958;2023-04-06T03:45:54;-1.20;99.90
2603;DHT22;1311;47.966;7.958;2023-04-06T03:48:21;-1.30;99.90
2603;DHT22;1311;47.966;7.958;2023-04-06T03:50:48;-1.20;99.90
2603;DHT22;1311;47.966;7.958;2023-04-06T03:53:14;-1.20;99.90
2603;DHT22;1311;47.966;7.958;2023-04-06T03:55:41;-1.30;99.90
2603;DHT22;1311;47.966;7.958;2023-04-06T03:58:09;-1.30;99.90
2603;DHT22;1311;47.966;7.958;2023-04-06T04:00:36;-1.30;99.90
2603;DHT22;1311;47.966;7.958;2023-04-06T04:03:03;-1.30;99.90
2603;DHT22;1311;47.966;7.958;2023-04-06T04:05:29;-1.30;99.90
2603;DHT22;1311;47.966;7.958;2023-04-06T04:07:56;-1.40;99.90
2603;DHT22;1311;47.966;7.958;2023-04-06T04:10:23;-1.40;99.90
2603;DHT22;1311;47.966;7.958;2023-04-06T04:12:49;-1.40;99.90
2603;DHT22;1311;47.966;7.958;2023-04-06T04:15:17;-1.40;99.90
2603;DHT22;1311;47.966;7.958;2023-04-06T04:17:44;-1.50;99.90
2603;DHT22;1311;47.966;7.958;2023-04-06T04:20:12;-1.50;99.90
2603;DHT22;1311;47.966;7.958;2023-04-06T04:22:39;-1.50;99.90
2603;DHT22;1311;47.966;7.958;2023-04-06T04:25:06;-1.50;99.90
2603;DHT22;1311;47.966;7.958;2023-04-06T04:27:33;-1.50;99.90
2603;DHT22;1311;47.966;7.958;2023-04-06T04:29:59;-1.50;99.90
2603;DHT22;1311;47.966;7.958;2023-04-06T04:32:27;-1.40;99.90
2603;DHT22;1311;47.966;7.958;2023-04-06T04:34:54;-1.50;99.90
2603;DHT22;1311;47.966;7.958;2023-04-06T04:37:21;-1.50;99.90
2603;DHT22;1311;47.966;7.958;2023-04-06T04:39:48;-1.50;99.90
2603;DHT22;1311;47.966;7.958;2023-04-06T04:42:15;-1.50;99.90
2603;DHT22;1311;47.966;7.958;2023-04-06T04:44:41;-1.40;99.90
2603;DHT22;1311;47.966;7.958;2023-04-06T04:47:08;-1.40;99.90
2603;DHT22;1311;47.966;7.958;2023-04-06T04:49:36;-1.30;99.90
2603;DHT22;1311;47.966;7.958;2023-04-06T04:52:03;-1.30;99.90
2603;DHT22;1311;47.966;7.958;2023-04-06T04:54:29;-1.30;99.90
2603;DHT22;1311;47.966;7.958;2023-04-06T04:56:56;-1.30;99.90
2603;DHT22;1311;47.966;7.958;2023-04-06T04:59:23;-1.30;99.90
2603;DHT22;1311;47.966;7.958;2023-04-06T05:01:49;-1.20;99.90
2603;DHT22;1311;47.966;7.958;2023-04-06T05:04:16;-1.20;99.90
2603;DHT22;1311;47.966;7.958;2023-04-06T05:06:44;-1.20;99.90
2603;DHT22;1311;47.966;7.958;2023-04-06T05:09:11;-1.20;99.90
2603;DHT22;1311;47.966;7.958;2023-04-06T05:11:37;-1.10;99.90
2603;DHT22;1311;47.966;7.958;2023-04-06T05:14:04;-1.10;99.90
2603;DHT22;1311;47.966;7.958;2023-04-06T05:16:33;-1.10;99.90
2603;DHT22;1311;47.966;7.958;2023-04-06T05:19:00;-1.10;99.90
2603;DHT22;1311;47.966;7.958;2023-04-06T05:21:27;-1.10;99.90
2603;DHT22;1311;47.966;7.958;2023-04-06T05:23:55;-0.90;99.90
2603;DHT22;1311;47.966;7.958;2023-04-06T05:26:22;-0.90;99.90
2603;DHT22;1311;47.966;7.958;2023-04-06T05:28:48;-0.70;99.90
2603;DHT22;1311;47.966;7.958;2023-04-06T05:31:15;0.20;99.90
2603;DHT22;1311;47.966;7.958;2023-04-06T05:33:42;0.90;99.90
2603;DHT22;1311;47.966;7.958;2023-04-06T05:36:09;1.50;99.90
2603;DHT22;1311;47.966;7.958;2023-04-06T05:38:37;2.00;99.90
2603;DHT22;1311;47.966;7.958;2023-04-06T05:41:05;2.50;99.90
2603;DHT22;1311;47.966;7.958;2023-04-06T05:43:31;2.80;99.90
2603;DHT22;1311;47.966;7.958;2023-04-06T05:45:58;3.00;99.90
2603;DHT22;1311;47.966;7.958;2023-04-06T05:48:25;3.20;99.90
2603;DHT22;1311;47.966;7.958;2023-04-06T05:50:52;3.20;99.90
2603;DHT22;1311;47.966;7.958;2023-04-06T05:53:18;3.50;99.90
2603;DHT22;1311;47.966;7.958;2023-04-06T05:55:46;3.50;99.90
2603;DHT22;1311;47.966;7.958;2023-04-06T05:58:14;3.30;99.90
2603;DHT22;1311;47.966;7.958;2023-04-06T06:00:42;2.90;99.90
2603;DHT22;1311;47.966;7.958;2023-04-06T06:03:11;2.90;99.90
2603;DHT22;1311;47.966;7.958;2023-04-06T06:05:38;2.90;99.90
2603;DHT22;1311;47.966;7.958;2023-04-06T06:08:05;3.00;99.90
2603;DHT22;1311;47.966;7.958;2023-04-06T06:10:32;2.80;99.90
2603;DHT22;1311;47.966;7.958;2023-04-06T06:12:58;2.90;99.90
2603;DHT22;1311;47.966;7.958;2023-04-06T06:15:27;2.70;99.90
2603;DHT22;1311;47.966;7.958;2023-04-06T06:17:53;2.70;99.90
2603;DHT22;1311;47.966;7.958;2023-04-06T06:20:20;2.70;99.90
2603;DHT22;1311;47.966;7.958;2023-04-06T06:22:47;2.70;99.90
2603;DHT22;1311;47.966;7.958;2023-04-06T06:25:13;2.70;99.90
2603;DHT22;1311;47.966;7.958;2023-04-06T06:27:41;2.60;99.90
2603;DHT22;1311;47.966;7.958;2023-04-06T06:30:08;2.60;99.90
2603;DHT22;1311;47.966;7.958;2023-04-06T06:32:37;2.60;99.90
2603;DHT22;1311;47.966;7.958;2023-04-06T06:35:04;2.70;99.90
2603;DHT22;1311;47.966;7.958;2023-04-06T06:37:32;2.70;99.90
2603;DHT22;1311;47.966;7.958;2023-04-06T06:39:58;2.80;99.90
2603;DHT22;1311;47.966;7.958;2023-04-06T06:42:25;2.80;99.90
2603;DHT22;1311;47.966;7.958;2023-04-06T06:44:52;2.80;99.90
2603;DHT22;1311;47.966;7.958;2023-04-06T06:47:19;3.00;99.90
2603;DHT22;1311;47.966;7.958;2023-04-06T06:49:47;3.00;99.90
2603;DHT22;1311;47.966;7.958;2023-04-06T06:52:14;3.10;99.90
2603;DHT22;1311;47.966;7.958;2023-04-06T06:54:40;3.10;99.90
2603;DHT22;1311;47.966;7.958;2023-04-06T06:57:07;3.20;99.90
2603;DHT22;1311;47.966;7.958;2023-04-06T06:59:36;3.20;99.90
2603;DHT22;1311;47.966;7.958;2023-04-06T07:02:02;3.30;99.90
2603;DHT22;1311;47.966;7.958;2023-04-06T07:04:29;3.40;99.90
2603;DHT22;1311;47.966;7.958;2023-04-06T07:06:57;3.50;99.90
2603;DHT22;1311;47.966;7.958;2023-04-06T07:09:24;3.60;99.90
2603;DHT22;1311;47.966;7.958;2023-04-06T07:11:52;3.60;99.90
2603;DHT22;1311;47.966;7.958;2023-04-06T07:14:18;3.70;99.90
2603;DHT22;1311;47.966;7.958;2023-04-06T07:16:45;3.80;99.90
2603;DHT22;1311;47.966;7.958;2023-04-06T07:19:12;4.10;99.90
2603;DHT22;1311;47.966;7.958;2023-04-06T07:21:39;4.20;99.90
2603;DHT22;1311;47.966;7.958;2023-04-06T07:24:07;4.30;99.90
2603;DHT22;1311;47.966;7.958;2023-04-06T07:26:34;4.30;99.90
2603;DHT22;1311;47.966;7.958;2023-04-06T07:29:00;4.40;99.90
2603;DHT22;1311;47.966;7.958;2023-04-06T07:31:27;4.50;99.90
2603;DHT22;1311;47.966;7.958;2023-04-06T07:33:54;4.50;96.20
2603;DHT22;1311;47.966;7.958;2023-04-06T07:36:20;4.60;89.80
2603;DHT22;1311;47.966;7.958;2023-04-06T07:38:47;4.70;77.00
2603;DHT22;1311;47.966;7.958;2023-04-06T07:41:15;4.80;66.80
2603;DHT22;1311;47.966;7.958;2023-04-06T07:43:42;4.90;57.30
2603;DHT22;1311;47.966;7.958;2023-04-06T07:46:09;5.00;49.70
2603;DHT22;1311;47.966;7.958;2023-04-06T07:48:36;5.10;43.50
2603;DHT22;1311;47.966;7.958;2023-04-06T07:51:04;5.30;38.80
2603;DHT22;1311;47.966;7.958;2023-04-06T07:53:32;5.40;27.00
2603;DHT22;1311;47.966;7.958;2023-04-06T07:55:58;5.40;9.10
2603;DHT22;1311;47.966;7.958;2023-04-06T07:58:27;5.60;1.00
2603;DHT22;1311;47.966;7.958;2023-04-06T08:00:53;5.70;1.00
2603;DHT22;1311;47.966;7.958;2023-04-06T08:03:20;5.80;1.00
2603;DHT22;1311;47.966;7.958;2023-04-06T08:05:50;6.00;1.00
2603;DHT22;1311;47.966;7.958;2023-04-06T08:08:17;6.30;1.00
2603;DHT22;1311;47.966;7.958;2023-04-06T08:10:44;6.40;1.00
2603;DHT22;1311;47.966;7.958;2023-04-06T08:13:11;6.60;1.00
2603;DHT22;1311;47.966;7.958;2023-04-06T08:15:39;6.80;1.00
2603;DHT22;1311;47.966;7.958;2023-04-06T08:18:07;6.90;99.90
2603;DHT22;1311;47.966;7.958;2023-04-06T08:20:35;7.10;96.40
2603;DHT22;1311;47.966;7.958;2023-04-06T08:23:02;7.20;99.90
2603;DHT22;1311;47.966;7.958;2023-04-06T08:25:29;7.30;1.00
2603;DHT22;1311;47.966;7.958;2023-04-06T08:27:56;7.40;99.90
2603;DHT22;1311;47.966;7.958;2023-04-06T08:30:22;7.60;1.00
2603;DHT22;1311;47.966;7.958;2023-04-06T08:32:51;7.60;1.00
2603;DHT22;1311;47.966;7.958;2023-04-06T08:35:18;7.60;99.90
2603;DHT22;1311;47.966;7.958;2023-04-06T08:37:45;7.80;37.90
2603;DHT22;1311;47.966;7.958;2023-04-06T08:40:12;8.20;1.00
2603;DHT22;1311;47.966;7.958;2023-04-06T08:42:40;8.50;1.00
2603;DHT22;1311;47.966;7.958;2023-04-06T08:45:08;8.60;1.00
2603;DHT22;1311;47.966;7.958;2023-04-06T08:47:36;8.80;1.00
2603;DHT22;1311;47.966;7.958;2023-04-06T08:50:06;8.80;1.00
2603;DHT22;1311;47.966;7.958;2023-04-06T08:52:33;8.80;99.90
2603;DHT22;1311;47.966;7.958;2023-04-06T08:55:01;8.80;99.90
2603;DHT22;1311;47.966;7.958;2023-04-06T08:57:27;9.00;99.90
2603;DHT22;1311;47.966;7.958;2023-04-06T08:59:55;9.10;99.90
2603;DHT22;1311;47.966;7.958;2023-04-06T09:02:23;9.20;99.90
2603;DHT22;1311;47.966;7.958;2023-04-06T09:04:52;9.20;99.90
2603;DHT22;1311;47.966;7.958;2023-04-06T09:07:21;9.30;99.90
2603;DHT22;1311;47.966;7.958;2023-04-06T09:09:49;9.40;99.90
2603;DHT22;1311;47.966;7.958;2023-04-06T09:12:24;9.40;99.90
2603;DHT22;1311;47.966;7.958;2023-04-06T09:14:50;9.60;99.90
2603;DHT22;1311;47.966;7.958;2023-04-06T09:17:21;9.80;99.90
2603;DHT22;1311;47.966;7.958;2023-04-06T09:19:48;9.70;99.90
2603;DHT22;1311;47.966;7.958;2023-04-06T09:22:15;9.80;99.90
2603;DHT22;1311;47.966;7.958;2023-04-06T09:24:45;9.90;99.90
2603;DHT22;1311;47.966;7.958;2023-04-06T09:27:12;9.90;82.40
2603;DHT22;1311;47.966;7.958;2023-04-06T09:29:40;10.00;32.60
2603;DHT22;1311;47.966;7.958;2023-04-06T09:32:08;10.10;21.50
2603;DHT22;1311;47.966;7.958;2023-04-06T09:34:37;10.30;20.70
2603;DHT22;1311;47.966;7.958;2023-04-06T09:37:12;10.30;1.00
2603;DHT22;1311;47.966;7.958;2023-04-06T09:39:39;10.50;1.00
2603;DHT22;1311;47.966;7.958;2023-04-06T09:42:08;10.80;1.00
2603;DHT22;1311;47.966;7.958;2023-04-06T09:44:35;10.80;1.00
2603;DHT22;1311;47.966;7.958;2023-04-06T09:47:05;10.70;1.00
2603;DHT22;1311;47.966;7.958;2023-04-06T09:49:33;10.70;1.00
2603;DHT22;1311;47.966;7.958;2023-04-06T09:52:03;11.00;1.00
2603;DHT22;1311;47.966;7.958;2023-04-06T09:54:31;11.20;1.00
2603;DHT22;1311;47.966;7.958;2023-04-06T09:57:03;11.20;1.00
2603;DHT22;1311;47.966;7.958;2023-04-06T09:59:39;11.20;1.00
2603;DHT22;1311;47.966;7.958;2023-04-06T10:02:14;11.40;1.00
2603;DHT22;1311;47.966;7.958;2023-04-06T10:04:46;11.70;1.00
2603;DHT22;1311;47.966;7.958;2023-04-06T10:07:16;12.10;1.00
2603;DHT22;1311;47.966;7.958;2023-04-06T10:09:45;12.20;1.00
2603;DHT22;1311;47.966;7.958;2023-04-06T10:12:13;12.40;1.00
2603;DHT22;1311;47.966;7.958;2023-04-06T10:14:41;12.60;1.00
2603;DHT22;1311;47.966;7.958;2023-04-06T10:17:09;12.50;1.00
2603;DHT22;1311;47.966;7.958;2023-04-06T10:19:45;12.40;1.00
2603;DHT22;1311;47.966;7.958;2023-04-06T10:22:20;12.40;1.00
2603;DHT22;1311;47.966;7.958;2023-04-06T10:24:49;12.40;1.00
2603;DHT22;1311;47.966;7.958;2023-04-06T10:27:15;12.30;99.90
2603;DHT22;1311;47.966;7.958;2023-04-06T10:29:45;12.20;99.90
2603;DHT22;1311;47.966;7.958;2023-04-06T10:32:12;12.30;99.90
2603;DHT22;1311;47.966;7.958;2023-04-06T10:34:39;12.60;99.90
2603;DHT22;1311;47.966;7.958;2023-04-06T10:37:13;12.60;99.90
2603;DHT22;1311;47.966;7.958;2023-04-06T10:39:47;12.80;99.90
2603;DHT22;1311;47.966;7.958;2023-04-06T10:42:14;12.80;99.90
2603;DHT22;1311;47.966;7.958;2023-04-06T10:44:45;12.70;99.90
2603;DHT22;1311;47.966;7.958;2023-04-06T10:47:16;12.90;99.90
2603;DHT22;1311;47.966;7.958;2023-04-06T10:49:44;13.00;99.90
2603;DHT22;1311;47.966;7.958;2023-04-06T10:52:11;13.40;99.90
2603;DHT22;1311;47.966;7.958;2023-04-06T10:54:41;13.40;99.90
2603;DHT22;1311;47.966;7.958;2023-04-06T10:57:09;13.40;99.90
2603;DHT22;1311;47.966;7.958;2023-04-06T10:59:36;13.20;99.90
2603;DHT22;1311;47.966;7.958;2023-04-06T11:02:05;12.60;99.90
2603;DHT22;1311;47.966;7.958;2023-04-06T11:04:31;12.90;99.90
2603;DHT22;1311;47.966;7.958;2023-04-06T11:06:58;13.30;99.90
2603;DHT22;1311;47.966;7.958;2023-04-06T11:09:25;13.50;99.90
2603;DHT22;1311;47.966;7.958;2023-04-06T11:11:53;13.50;99.90
2603;DHT22;1311;47.966;7.958;2023-04-06T11:14:20;13.40;99.90
2603;DHT22;1311;47.966;7.958;2023-04-06T11:16:47;13.20;99.90
2603;DHT22;1311;47.966;7.958;2023-04-06T11:19:16;12.90;99.90
2603;DHT22;1311;47.966;7.958;2023-04-06T11:21:45;13.20;99.90
2603;DHT22;1311;47.966;7.958;2023-04-06T11:24:14;13.40;99.90
2603;DHT22;1311;47.966;7.958;2023-04-06T11:26:43;13.80;99.90
2603;DHT22;1311;47.966;7.958;2023-04-06T11:29:12;13.80;99.90
2603;DHT22;1311;47.966;7.958;2023-04-06T11:31:44;13.80;99.90
2603;DHT22;1311;47.966;7.958;2023-04-06T11:34:12;13.90;99.90
2603;DHT22;1311;47.966;7.958;2023-04-06T11:36:44;13.80;99.90
2603;DHT22;1311;47.966;7.958;2023-04-06T11:39:12;13.80;99.90
2603;DHT22;1311;47.966;7.958;2023-04-06T11:41:39;13.50;99.90
2603;DHT22;1311;47.966;7.958;2023-04-06T11:44:06;13.60;99.90
2603;DHT22;1311;47.966;7.958;2023-04-06T11:46:33;13.80;99.90
2603;DHT22;1311;47.966;7.958;2023-04-06T11:49:00;13.70;99.90
2603;DHT22;1311;47.966;7.958;2023-04-06T11:51:27;14.00;99.90
2603;DHT22;1311;47.966;7.958;2023-04-06T11:53:55;14.30;99.90
2603;DHT22;1311;47.966;7.958;2023-04-06T11:56:24;14.50;99.90
2603;DHT22;1311;47.966;7.958;2023-04-06T11:58:51;14.20;99.90
2603;DHT22;1311;47.966;7.958;2023-04-06T12:01:18;14.40;99.90
2603;DHT22;1311;47.966;7.958;2023-04-06T12:03:45;14.20;99.90
2603;DHT22;1311;47.966;7.958;2023-04-06T12:06:12;14.30;99.90
2603;DHT22;1311;47.966;7.958;2023-04-06T12:08:38;14.60;99.90
2603;DHT22;1311;47.966;7.958;2023-04-06T12:11:06;14.40;99.90
2603;DHT22;1311;47.966;7.958;2023-04-06T12:13:33;14.90;99.90
2603;DHT22;1311;47.966;7.958;2023-04-06T12:16:00;15.20;99.90
2603;DHT22;1311;47.966;7.958;2023-04-06T12:18:27;15.10;99.90
2603;DHT22;1311;47.966;7.958;2023-04-06T12:20:53;15.00;99.90
2603;DHT22;1311;47.966;7.958;2023-04-06T12:23:20;15.20;98.40
2603;DHT22;1311;47.966;7.958;2023-04-06T12:25:47;15.20;97.20
2603;DHT22;1311;47.966;7.958;2023-04-06T12:28:15;15.30;99.90
2603;DHT22;1311;47.966;7.958;2023-04-06T12:30:43;15.00;89.50
2603;DHT22;1311;47.966;7.958;2023-04-06T12:33:09;14.70;72.20
2603;DHT22;1311;47.966;7.958;2023-04-06T12:35:36;14.40;57.70
2603;DHT22;1311;47.966;7.958;2023-04-06T12:38:04;14.20;55.00
2603;DHT22;1311;47.966;7.958;2023-04-06T12:40:36;14.20;57.70
2603;DHT22;1311;47.966;7.958;2023-04-06T12:43:03;14.30;64.20
2603;DHT22;1311;47.966;7.958;2023-04-06T12:45:31;14.30;68.10
2603;DHT22;1311;47.966;7.958;2023-04-06T12:47:58;13.90;58.80
2603;DHT22;1311;47.966;7.958;2023-04-06T12:50:25;13.70;59.80
2603;DHT22;1311;47.966;7.958;2023-04-06T12:52:52;13.70;66.00
2603;DHT22;1311;47.966;7.958;2023-04-06T12:55:19;14.00;75.70
2603;DHT22;1311;47.966;7.958;2023-04-06T12:57:47;14.50;88.00
2603;DHT22;1311;47.966;7.958;2023-04-06T13:00:14;14.40;75.30
2603;DHT22;1311;47.966;7.958;2023-04-06T13:02:42;14.40;75.80
2603;DHT22;1311;47.966;7.958;2023-04-06T13:05:12;14.80;86.90
2603;DHT22;1311;47.966;7.958;2023-04-06T13:07:40;14.90;84.00
2603;DHT22;1311;47.966;7.958;2023-04-06T13:10:07;14.60;68.20
2603;DHT22;1311;47.966;7.958;2023-04-06T13:12:34;14.80;73.70
2603;DHT22;1311;47.966;7.958;2023-04-06T13:15:01;15.10;82.30
2603;DHT22;1311;47.966;7.958;2023-04-06T13:17:29;15.00;80.30
2603;DHT22;1311;47.966;7.958;2023-04-06T13:19:58;14.80;70.70
2603;DHT22;1311;47.966;7.958;2023-04-06T13:22:24;15.10;68.80
2603;DHT22;1311;47.966;7.958;2023-04-06T13:24:51;15.50;73.40
2603;DHT22;1311;47.966;7.958;2023-04-06T13:27:18;15.20;61.00
2603;DHT22;1311;47.966;7.958;2023-04-06T13:29:45;15.40;58.80
2603;DHT22;1311;47.966;7.958;2023-04-06T13:32:12;15.20;41.60
2603;DHT22;1311;47.966;7.958;2023-04-06T13:34:39;15.40;43.50
2603;DHT22;1311;47.966;7.958;2023-04-06T13:37:11;15.40;50.10
2603;DHT22;1311;47.966;7.958;2023-04-06T13:39:38;15.60;48.00
2603;DHT22;1311;47.966;7.958;2023-04-06T13:42:05;15.70;46.30
2603;DHT22;1311;47.966;7.958;2023-04-06T13:44:32;15.70;42.20
2603;DHT22;1311;47.966;7.958;2023-04-06T13:46:59;15.50;31.40
2603;DHT22;1311;47.966;7.958;2023-04-06T13:49:25;15.20;28.30
2603;DHT22;1311;47.966;7.958;2023-04-06T13:51:53;15.50;38.10
2603;DHT22;1311;47.966;7.958;2023-04-06T13:54:21;15.50;40.30
2603;DHT22;1311;47.966;7.958;2023-04-06T13:56:48;15.20;29.30
2603;DHT22;1311;47.966;7.958;2023-04-06T13:59:14;15.30;33.30
2603;DHT22;1311;47.966;7.958;2023-04-06T14:01:41;15.30;31.40
2603;DHT22;1311;47.966;7.958;2023-04-06T14:04:08;15.10;29.60
2603;DHT22;1311;47.966;7.958;2023-04-06T14:06:35;15.40;35.80
2603;DHT22;1311;47.966;7.958;2023-04-06T14:09:02;14.90;28.30
2603;DHT22;1311;47.966;7.958;2023-04-06T14:11:31;14.90;31.60
2603;DHT22;1311;47.966;7.958;2023-04-06T14:13:58;15.20;35.30
2603;DHT22;1311;47.966;7.958;2023-04-06T14:16:26;14.70;34.00
2603;DHT22;1311;47.966;7.958;2023-04-06T14:18:53;14.80;41.60
2603;DHT22;1311;47.966;7.958;2023-04-06T14:21:20;14.80;39.00
2603;DHT22;1311;47.966;7.958;2023-04-06T14:23:47;14.60;34.80
2603;DHT22;1311;47.966;7.958;2023-04-06T14:26:13;14.40;31.10
2603;DHT22;1311;47.966;7.958;2023-04-06T14:28:42;14.00;34.30
2603;DHT22;1311;47.966;7.958;2023-04-06T14:31:13;14.40;42.50
2603;DHT22;1311;47.966;7.958;2023-04-06T14:33:41;14.00;33.70
2603;DHT22;1311;47.966;7.958;2023-04-06T14:36:08;14.20;35.60
2603;DHT22;1311;47.966;7.958;2023-04-06T14:38:36;14.00;35.00
2603;DHT22;1311;47.966;7.958;2023-04-06T14:41:03;14.00;41.50
2603;DHT22;1311;47.966;7.958;2023-04-06T14:43:30;14.20;49.40
2603;DHT22;1311;47.966;7.958;2023-04-06T14:46:01;14.30;55.60
2603;DHT22;1311;47.966;7.958;2023-04-06T14:48:28;14.30;54.20
2603;DHT22;1311;47.966;7.958;2023-04-06T14:50:55;14.30;53.10
2603;DHT22;1311;47.966;7.958;2023-04-06T14:53:22;14.20;54.30
2603;DHT22;1311;47.966;7.958;2023-04-06T14:55:49;14.10;53.20
2603;DHT22;1311;47.966;7.958;2023-04-06T14:58:16;14.10;59.50
2603;DHT22;1311;47.966;7.958;2023-04-06T15:00:43;14.10;61.10
2603;DHT22;1311;47.966;7.958;2023-04-06T15:03:11;14.20;69.50
2603;DHT22;1311;47.966;7.958;2023-04-06T15:05:38;14.30;68.30
2603;DHT22;1311;47.966;7.958;2023-04-06T15:08:05;14.20;69.50
2603;DHT22;1311;47.966;7.958;2023-04-06T15:10:34;14.20;73.60
2603;DHT22;1311;47.966;7.958;2023-04-06T15:13:02;14.30;81.00
2603;DHT22;1311;47.966;7.958;2023-04-06T15:15:29;14.20;78.40
2603;DHT22;1311;47.966;7.958;2023-04-06T15:17:56;14.10;77.70
2603;DHT22;1311;47.966;7.958;2023-04-06T15:20:24;13.80;63.50
2603;DHT22;1311;47.966;7.958;2023-04-06T15:22:51;13.80;63.50
2603;DHT22;1311;47.966;7.958;2023-04-06T15:25:18;13.80;69.30
2603;DHT22;1311;47.966;7.958;2023-04-06T15:27:45;13.80;72.40
2603;DHT22;1311;47.966;7.958;2023-04-06T15:30:12;13.70;70.10
2603;DHT22;1311;47.966;7.958;2023-04-06T15:32:39;13.60;69.00
2603;DHT22;1311;47.966;7.958;2023-04-06T15:35:09;13.60;71.10
2603;DHT22;1311;47.966;7.958;2023-04-06T15:37:38;13.40;65.60
2603;DHT22;1311;47.966;7.958;2023-04-06T15:40:06;13.40;71.70
2603;DHT22;1311;47.966;7.958;2023-04-06T15:42:33;13.50;85.40
2603;DHT22;1311;47.966;7.958;2023-04-06T15:45:00;13.40;82.90
2603;DHT22;1311;47.966;7.958;2023-04-06T15:47:27;13.30;84.20
2603;DHT22;1311;47.966;7.958;2023-04-06T15:49:53;13.30;82.90
2603;DHT22;1311;47.966;7.958;2023-04-06T15:52:21;12.90;85.00
2603;DHT22;1311;47.966;7.958;2023-04-06T15:54:49;12.40;90.50
2603;DHT22;1311;47.966;7.958;2023-04-06T15:57:16;12.10;99.50
2603;DHT22;1311;47.966;7.958;2023-04-06T15:59:43;12.10;99.90
2603;DHT22;1311;47.966;7.958;2023-04-06T16:02:10;12.30;99.90
2603;DHT22;1311;47.966;7.958;2023-04-06T16:04:36;12.30;99.90
2603;DHT22;1311;47.966;7.958;2023-04-06T16:07:05;12.40;99.90